Station: Coober Pedy Airport

  Atmospheric Gas Attenuation - ITU Rec 676-11   --------------- db/100km ---------------
Date Time Temp RH % AH g/m3 Dew Point Wind Direction Speed kph Gust kph Barometer mB Rainfall Since 9am 24GHz 47GHz 76GHz 122GHz 134GHz 241GHz
03 08:40 23.1 42 8.68 9.5 24 32 1016.2 0 19.3 23.6 35.9 94.0 88.6 305.3
03 08:30 22.8 43 8.74 9.6 26 35 1016 0 19.5 23.7 36.2 94.9 89.6 308.9
03 08:20 22.8 45 9.14 10.3 20 24 1016.3 0 20.3 24.3 37.7 98.8 94.4 325.5
03 08:10 22.5 45 8.99 10 28 30 1015.7 0 20.0 24.2 37.2 97.7 92.9 320.3
03 08:00 22.4 45 8.94 9.9 26 33 1015.3 0 19.9 24.1 37.1 97.3 92.4 318.5
03 07:50 22.1 45 8.78 9.6 28 33 1015.7 0 19.6 24.0 36.6 96.1 90.9 313.1
03 07:40 21.9 47 9.07 10.1 24 30 1015.2 0 20.2 24.4 37.8 99.1 94.5 326.0
03 07:30 21.7 48 9.16 10.2 20 26 1015.3 0 20.4 24.6 38.2 100.3 95.9 330.6
03 07:20 21.1 50 9.21 10.3 22 24 1015.1 0 20.5 24.9 38.7 101.5 97.2 335.2
03 07:10 21.2 49 9.08 10.1 20 26 1014.8 0 20.2 24.6 38.1 100.0 95.5 329.1
03 07:00 21.3 48 8.95 9.9 22 30 1015.1 0 20.0 24.4 37.6 98.7 93.8 323.3
03 06:50 21.5 48 9.05 10 24 28 1014.8 0 20.2 24.5 37.9 99.4 94.7 326.6
03 06:40 21.4 48 9 9.9 20 22 1015 0 20.1 24.5 37.7 99.0 94.3 325.0
03 06:30 21.3 47 8.76 9.5 15 17 1015.3 0 19.6 24.1 36.9 96.8 91.5 315.3
03 06:20 21.5 46 8.67 9.4 11 13 1014.8 0 19.4 23.9 36.5 95.7 90.2 310.6
03 06:10 21.5 46 8.67 9.4 15 17 1014.2 0 19.4 23.9 36.5 95.6 90.1 310.5
03 06:00 21.5 45 8.48 9.1 17 22 1013.7 0 19.0 23.6 35.7 93.7 87.8 302.4
03 05:50 21.4 45 8.44 9 19 20 1013.7 0 18.9 23.6 35.6 93.5 87.5 301.1
03 05:40 21.2 45 8.34 8.8 20 22 1013.7 0 18.7 23.5 35.4 92.7 86.5 297.7
03 05:30 21.3 45 8.39 8.9 19 24 1013.3 0 18.8 23.5 35.5 93.1 87.0 299.3
03 05:20 21.4 44 8.25 8.7 19 20 1013.3 0 18.5 23.3 35.0 91.6 85.2 293.2
03 05:00 21.6 44 8.34 8.8 20 26 1013 0 18.7 23.4 35.2 92.2 86.0 296.1
03 04:50 21.8 43 8.25 8.7 20 24 1013.2 0 18.5 23.2 34.8 91.1 84.8 291.7
03 04:40 22 42 8.15 8.5 20 24 1013.2 0 18.3 23.0 34.3 90.0 83.4 286.9
03 04:30 22.1 42 8.2 8.6 22 28 1013 0 18.4 23.0 34.5 90.3 83.8 288.5
03 04:20 22.2 41 8.05 8.3 22 24 1013.1 0 18.0 22.8 33.9 88.8 82.0 282.1
03 04:10 22.4 40 7.94 8.1 19 20 1013.3 0 17.8 22.6 33.4 87.6 80.6 277.0
03 04:00 22.5 40 7.99 8.2 20 28 1013.2 0 17.9 22.6 33.6 87.9 81.0 278.7
03 03:50 22.7 39 7.88 8 20 22 1013.3 0 17.7 22.4 33.1 86.7 79.6 273.6
03 03:40 22.8 38 7.72 7.8 17 24 1013.4 0 17.3 22.2 32.5 85.1 77.7 266.9
03 03:30 23.1 37 7.65 7.6 22 28 1013.2 0 17.2 22.0 32.2 84.2 76.6 263.1
03 03:20 23.2 35 7.28 6.9 24 28 1013.4 0 16.4 21.5 30.9 80.7 72.4 248.4
03 03:10 23.4 34 7.15 6.7 20 24 1013.3 0 16.1 21.3 30.4 79.4 70.7 242.7
03 03:00 23.6 32 6.81 6 22 28 1013.4 0 15.4 20.8 29.2 76.2 66.9 229.1
03 02:50 23.7 31 6.63 5.6 20 22 1013.5 0 15.0 20.5 28.5 74.5 64.8 222.0
03 02:40 23.8 30 6.45 5.2 19 22 1013.5 0 14.6 20.3 27.9 72.9 62.8 215.0
03 02:30 23.9 30 6.49 5.3 20 28 1013.5 0 14.7 20.3 28.0 73.1 63.2 216.2
03 02:20 24.1 29 6.34 5 22 26 1013.6 0 14.4 20.1 27.5 71.7 61.4 210.1
03 02:10 24.3 29 6.42 5.1 20 26 1013.9 0 14.6 20.1 27.7 72.2 62.2 212.6
03 02:00 24.4 28 6.23 4.7 20 28 1014 0 14.2 19.9 27.0 70.5 60.1 205.4
03 01:50 24.7 27 6.11 4.5 22 28 1013.8 0 13.9 19.6 26.6 69.2 58.6 200.2
03 01:40 24.9 27 6.18 4.6 26 30 1013.7 0 14.0 19.7 26.7 69.6 59.2 202.3
03 01:30 25.1 26 6.02 4.3 30 37 1013.7 0 13.7 19.4 26.2 68.1 57.4 195.9
03 01:20 25.2 26 6.05 4.3 30 33 1013.8 0 13.8 19.5 26.2 68.3 57.6 196.8
03 01:10 25.3 25 5.85 3.9 30 39 1013.9 0 13.3 19.2 25.6 66.6 55.5 189.4
03 01:00 25.6 25 5.95 4.1 33 44 1013.8 0 13.5 19.2 25.8 67.2 56.3 192.3
03 00:50 25.8 25 6.02 4.3 37 46 1014 0 13.7 19.3 25.9 67.6 56.9 194.4
03 00:40 26 26 6.33 5 32 44 1014 0 14.3 19.7 26.8 70.0 60.0 205.1
03 00:30 26.2 27 6.65 5.7 35 43 1014.1 0 15.0 20.0 27.8 72.5 63.1 216.3
03 00:20 26.5 27 6.76 6 33 37 1014.2 0 15.2 20.1 28.0 73.2 64.1 219.6
03 00:10 26.8 28 7.13 6.8 35 41 1014.2 0 15.9 20.5 29.1 76.1 67.7 232.4
03 00:00 27 28 7.21 6.9 32 41 1014.3 0 16.1 20.6 29.3 76.6 68.4 234.8
02 23:50 27.3 28 7.33 7.2 37 41 1014.3 0 16.3 20.7 29.6 77.3 69.4 238.4
02 23:40 27.6 27 7.18 6.9 35 39 1014.5 0 16.0 20.4 29.0 75.8 67.6 232.1
02 23:30 27.9 27 7.3 7.2 30 37 1014.5 0 16.2 20.5 29.3 76.6 68.6 235.6
02 23:20 28.2 27 7.42 7.4 33 37 1014.4 0 16.5 20.6 29.6 77.3 69.6 239.2
02 23:10 28.4 28 7.78 8.1 30 33 1014.4 0 17.2 21.0 30.6 80.2 73.2 251.9
02 23:00 28.6 28 7.87 8.3 30 37 1014.4 0 17.4 21.1 30.8 80.7 74.0 254.6
02 22:50 28.7 29 8.2 8.9 26 30 1014.4 0 18.1 21.5 31.9 83.5 77.4 266.6
02 22:40 28.8 29 8.24 9 24 28 1014.3 0 18.1 21.5 32.0 83.7 77.7 267.7
02 22:30 29.1 28 8.09 8.7 30 41 1014.1 0 17.8 21.3 31.4 82.1 75.8 261.1
02 22:20 29.3 28 8.18 8.9 32 37 1014.1 0 18.0 21.3 31.6 82.7 76.6 263.9
02 22:10 29.5 28 8.27 9.1 33 39 1014 0 18.2 21.4 31.8 83.3 77.3 266.5
02 22:00 29.7 28 8.36 9.3 30 41 1013.8 0 18.4 21.5 32.0 83.8 78.1 269.2
02 21:50 30 27 8.19 9 32 35 1013.8 0 18.0 21.2 31.3 82.1 76.0 262.0
02 21:40 30.3 27 8.32 9.2 33 39 1013.6 0 18.2 21.3 31.6 82.9 77.1 265.7
02 21:30 30.6 26 8.15 8.9 35 43 1013.4 0 17.9 21.0 31.0 81.1 75.0 258.5
02 21:20 30.9 26 8.28 9.2 30 37 1013.4 0 18.1 21.1 31.3 81.9 76.1 262.3
02 21:10 31.3 26 8.46 9.5 30 39 1013.3 0 18.5 21.2 31.7 83.0 77.6 267.6
02 21:00 31.6 26 8.59 9.8 33 43 1013 0 18.7 21.3 32.0 83.8 78.6 271.3
02 20:50 32 25 8.44 9.5 35 43 1013 0 18.4 21.0 31.3 82.1 76.7 264.6
02 20:40 32.3 25 8.58 9.8 33 35 1012.9 0 18.7 21.1 31.7 83.0 77.9 268.7
02 20:30 32.5 25 8.67 9.9 35 41 1012.7 0 18.9 21.2 31.9 83.6 78.6 271.3
02 20:20 32.8 24 8.46 9.6 35 41 1012.8 0 18.4 20.9 31.1 81.5 76.2 262.8
02 20:10 33.2 23 8.28 9.3 33 39 1012.6 0 18.0 20.5 30.4 79.6 74.0 255.1
02 20:00 33.5 22 8.04 8.9 32 41 1012.3 0 17.5 20.2 29.5 77.4 71.3 245.7
02 19:50 33.7 21 7.76 8.3 32 35 1012.3 0 17.0 19.8 28.6 75.0 68.3 235.4
02 19:40 34 21 7.88 8.6 30 37 1012.2 0 17.2 19.9 28.9 75.6 69.3 238.7
02 19:30 34.1 21 7.92 8.7 32 39 1012 0 17.3 19.9 29.0 75.9 69.6 239.7
02 19:20 34.3 20 7.63 8.1 28 33 1012.1 0 16.7 19.5 28.0 73.4 66.6 229.2
02 19:10 34.4 20 7.67 8.2 37 39 1011.9 0 16.8 19.5 28.1 73.6 66.9 230.3
02 19:00 34.4 20 7.67 8.2 32 46 1011.8 0 16.8 19.5 28.1 73.6 66.9 230.2
02 18:50 34.7 20 7.79 8.4 32 37 1011.7 0 17.0 19.6 28.4 74.3 67.8 233.5
02 18:40 34.9 20 7.87 8.6 28 32 1011.7 0 17.1 19.7 28.5 74.7 68.4 235.7
02 18:30 35.3 20 8.04 8.9 32 41 1011.7 0 17.5 19.8 28.9 75.7 69.7 240.4
02 18:20 35.1 20 7.95 8.8 35 39 1011.6 0 17.3 19.7 28.7 75.2 69.0 237.9
02 18:10 35 20 7.91 8.7 35 43 1011.6 0 17.2 19.7 28.6 74.9 68.7 236.8
02 18:00 34.8 20 7.83 8.5 32 41 1011.6 0 17.1 19.6 28.5 74.5 68.1 234.6
02 17:50 35.2 20 7.99 8.9 33 37 1011.5 0 17.4 19.7 28.8 75.4 69.3 238.9
02 17:40 35.1 21 8.35 9.5 28 30 1011.5 0 18.1 20.2 29.9 78.3 72.9 251.6
02 17:30 35.3 20 8.04 8.9 28 39 1011.5 0 17.5 19.8 28.9 75.7 69.7 240.3
02 17:20 35.1 20 7.95 8.8 24 32 1011.5 0 17.3 19.7 28.7 75.2 69.0 237.8
02 17:10 35 21 8.31 9.4 20 30 1011.6 0 18.0 20.2 29.8 78.1 72.6 250.5
02 17:00 35.2 21 8.39 9.6 24 35 1011.7 0 18.2 20.2 30.0 78.6 73.2 252.7
02 16:50 35.1 21 8.35 9.5 20 24 1011.8 0 18.1 20.2 29.9 78.4 72.9 251.7
02 16:40 34.6 22 8.52 9.8 22 26 1011.9 0 18.5 20.5 30.6 80.2 75.1 259.1
02 16:30 34.5 22 8.48 9.7 28 39 1011.9 0 18.4 20.5 30.5 80.0 74.8 258.0
02 16:20 34.9 22 8.66 10 30 39 1012.1 0 18.7 20.6 30.9 81.1 76.2 263.1
02 16:10 34.7 22 8.57 9.9 20 26 1012.2 0 18.6 20.6 30.7 80.6 75.5 260.6
02 16:00 34.6 22 8.52 9.8 24 43 1012.1 0 18.5 20.5 30.6 80.2 75.1 259.2

Last Refresh: 03-Dec-2021 08:51:48

Bureau of Meteorology